#97336
France | 2003

AB Yachts 68 for rent

  • 3 Cabins
  • 2 Crew

General information

Brand
Model
Production
2003
Name of boat
Kokab
Length
20,65 m / 67,75 ft
Beam
4,95 m / 16,24 ft
Draft
1,10 m / 3,61 ft
Displacement
38,00 tonne
Fuel
10 000 liters
Fresh water
4 000 liters
Location
France
Cruising speed
42,00 kn
Max speed
50,00 kn
Material
Carbon
Type
Planing
Crew
2
Cabin
3
Bed
6
Bathroom
3
Sea class
B. Sea craft
 

Trend in prices

Updated Seller price Price, $ Change price, $
24.07.2021 $ 27 553 $ 27 553 -
20.07.2021 $ 27 605 $ 27 605 +$ 52
15.07.2021 $ 27 701 $ 27 701 +$ 96
12.07.2021 $ 27 787 $ 27 787 +$ 86
06.07.2021 $ 27 667 $ 27 667 $ -120
30.06.2021 $ 27 738 $ 27 738 +$ 71
29.06.2021 $ 27 839 $ 27 839 +$ 101
23.06.2021 $ 27 904 $ 27 904 +$ 65
22.06.2021 $ 27 960 $ 27 960 +$ 56
21.06.2021 $ 27 885 $ 27 885 $ -75
18.06.2021 $ 27 783 $ 27 783 $ -102
17.06.2021 $ 27 867 $ 27 867 +$ 84
16.06.2021 $ 28 126 $ 28 126 +$ 259
11.06.2021 $ 28 328 $ 28 328 +$ 202
07.06.2021 $ 28 533 $ 28 533 +$ 205
04.06.2021 $ 28 470 $ 28 470 $ -63
03.06.2021 $ 28 388 $ 28 388 $ -82
31.05.2021 $ 28 612 $ 28 612 +$ 224
26.05.2021 $ 28 520 $ 28 520 $ -92
26.05.2021 $ 28 670 $ 28 670 +$ 150
24.05.2021 $ 28 580 $ 28 580 $ -90
21.05.2021 $ 28 517 $ 28 517 $ -63
20.05.2021 $ 28 595 $ 28 595 +$ 78
19.05.2021 $ 28 481 $ 28 481 $ -114
18.05.2021 $ 28 615 $ 28 615 +$ 134
14.05.2021 $ 28 414 $ 28 414 $ -201
12.05.2021 $ 28 259 $ 28 259 $ -155
11.05.2021 $ 28 412 $ 28 412 +$ 153
07.05.2021 $ 28 468 $ 28 468 +$ 56
06.05.2021 $ 28 228 $ 28 228 $ -240
04.05.2021 $ 28 116 $ 28 116 $ -112
03.05.2021 $ 28 228 $ 28 228 +$ 112
30.04.2021 $ 28 125 $ 28 125 $ -103
28.04.2021 $ 28 349 $ 28 349 +$ 224
27.04.2021 $ 28 296 $ 28 296 $ -53
22.03.2021 $ 27 784 $ 27 784 $ -512
12.03.2021 $ 28 058 $ 28 058 +$ 274
23.12.2020 $ 28 499 $ 28 499 +$ 441
23.12.2020 $ 28 446 $ 28 446 $ -53
21.12.2020 $ 28 646 $ 28 646 +$ 200
21.12.2020 $ 28 590 $ 28 590 $ -56
18.12.2020 $ 28 702 $ 28 702 +$ 112
14.12.2020 $ 28 401 $ 28 401 $ -301
13.12.2020 $ 28 341 $ 28 341 $ -60
11.12.2020 $ 28 411 $ 28 411 +$ 70
10.11.2020 $ 27 686 $ 27 686 $ -725
07.11.2020 $ 27 804 $ 27 804 +$ 118
06.11.2020 $ 27 675 $ 27 675 $ -129
05.11.2020 $ 27 433 $ 27 433 $ -242
04.11.2020 $ 27 379 $ 27 379 $ -54
02.11.2020 $ 27 261 $ 27 261 $ -118
01.11.2020 $ 27 325 $ 27 325 +$ 64
31.10.2020 $ 27 247 $ 27 247 $ -78
30.10.2020 $ 27 320 $ 27 320 +$ 73
29.10.2020 $ 27 497 $ 27 497 +$ 177
28.10.2020 $ 27 640 $ 27 640 +$ 143
24.10.2020 $ 27 751 $ 27 751 +$ 111
23.10.2020 $ 27 655 $ 27 655 $ -96
22.10.2020 $ 27 748 $ 27 748 +$ 93
21.10.2020 $ 27 667 $ 27 667 $ -81
20.10.2020 $ 27 538 $ 27 538 $ -129
17.10.2020 $ 27 417 $ 27 417 $ -121
14.10.2020 $ 27 507 $ 27 507 +$ 90
10.10.2020 $ 27 667 $ 27 667 +$ 160
30.09.2020 $ 27 471 $ 27 471 $ -196
25.09.2020 $ 27 297 $ 27 297 $ -174
22.09.2020 $ 27 402 $ 27 402 +$ 105
17.09.2020 $ 27 642 $ 27 642 +$ 240
15.09.2020 $ 27 769 $ 27 769 +$ 127
10.09.2020 $ 27 669 $ 27 669 $ -100
09.09.2020 $ 27 575 $ 27 575 $ -94
08.09.2020 $ 27 645 $ 27 645 +$ 70
07.09.2020 $ 27 717 $ 27 717 +$ 72
02.09.2020 $ 27 868 $ 27 868 +$ 151
27.08.2020 $ 27 668 $ 27 668 $ -200
24.08.2020 $ 27 603 $ 27 603 $ -65
21.08.2020 $ 27 752 $ 27 752 +$ 149
18.08.2020 $ 27 921 $ 27 921 +$ 169
15.08.2020 $ 27 705 $ 27 705 $ -216
09.08.2020 $ 27 577 $ 27 577 $ -128
06.08.2020 $ 27 786 $ 27 786 +$ 209
03.08.2020 $ 27 553 $ 27 553 $ -233
29.07.2020 $ 27 433 $ 27 433 $ -120
27.07.2020 $ 27 272 $ 27 272 $ -161
23.07.2020 $ 27 075 $ 27 075 $ -197
22.07.2020 $ 26 978 $ 26 978 $ -97
20.07.2020 $ 26 734 $ 26 734 $ -244
17.07.2020 $ 26 626 $ 26 626 $ -108
16.07.2020 $ 26 693 $ 26 693 +$ 67
14.07.2020 $ 26 547 $ 26 547 $ -146
13.07.2020 $ 26 441 $ 26 441 $ -106
09.07.2020 $ 26 509 $ 26 509 +$ 68
08.07.2020 $ 26 383 $ 26 383 $ -126
05.07.2020 $ 26 313 $ 26 313 $ -70
27.06.2020 $ 26 263 $ 26 263 $ -50
25.06.2020 $ 26 362 $ 26 362 +$ 99
22.06.2020 $ 26 173 $ 26 173 $ -189
19.06.2020 $ 26 227 $ 26 227 +$ 54
18.06.2020 $ 26 289 $ 26 289 +$ 62
17.06.2020 $ 26 343 $ 26 343 +$ 54
16.06.2020 $ 26 464 $ 26 464 +$ 121
02.06.2020 $ 26 050 $ 26 050 $ -414
30.05.2020 $ 25 978 $ 25 978 $ -72
27.05.2020 $ 25 715 $ 25 715 $ -263
24.05.2020 $ 25 518 $ 25 518 $ -197
21.05.2020 $ 25 698 $ 25 698 +$ 180
18.05.2020 $ 25 307 $ 25 307 $ -391
05.05.2020 $ 25 528 $ 25 528 +$ 221
28.04.2020 $ 25 359 $ 25 359 $ -169
23.04.2020 $ 25 235 $ 25 235 $ -124
22.04.2020 $ 25 327 $ 25 327 +$ 92
21.04.2020 $ 25 406 $ 25 406 +$ 79
15.04.2020 $ 25 532 $ 25 532 +$ 126
14.04.2020 $ 25 695 $ 25 695 +$ 163
13.04.2020 $ 25 536 $ 25 536 $ -159
13.04.2020 $ 25 611 $ 25 611 +$ 75
09.04.2020 $ 25 560 $ 25 560 $ -51
09.04.2020 $ 25 424 $ 25 424 $ -136
10.07.2019 25 500 € $ 28 578 +$ 3 154

* Attention! The price is indicated on a date taking into account the currency exchange rate on this date

Description



AB YACHT Kokab REFIT 2018





Length: 20.65 metres (67' 9")


Beam: 4.95 metres (16' 3")


Draft: 0.92 metres (3')


Number of crew: 2


Built: 2003


Refit: 2015


Builder: AB Yachts


Naval architect:


Flag: French


Hull construction: GRP


Hull configuration: Planing hull


Air conditioning, WiFi connection on board





Number of cabins: 3


Cabin configuration: 2 Double, 1 Twin


Bed configuration: 1 Pullman, 2 Queen, 2 Single


Number of guests: 7





Engines: 2 X Man 1550 Hp


Cruising speed: 33


Fuel consumption: 550 Litres/Hr



Tenders + toys: Snorkelling Equipment


1 Tender Williams Jet 325


Nautic Ski, bouee, wakeboard, seadoo propulser, 1 Seabob F5, banana, etc...


Jet Surf


Platform Nauti Buoy


73
$ 27 553 / per week
Book
AB Yachts 68 for rent

Broker/dealer information

Choose your booking dates

    Loading...
    Added: 13:07 08.05.2019
    Updated: 02:11 24.07.2021

    Source

    There are no reviews yet

    Be the first to write a review